Time;durP1;ratioP1;P1;durP2;ratioP2;P2;SDS_P1;SDS_P2;PMS_P1;PMS_P2;Temp;Humidity;BMP_temperature;BMP_pressure;BME280_temperature;BME280_humidity;BME280_pressure;Samples;Min_cycle;Max_cycle;Signal;HPM_P1;HPM_P2
2023/03/19 00:01:06;;;;;;;39.57;15.93;;;;;;;2.07;82.64;95709.59;5024074;28;20232;-69
2023/03/19 00:03:32;;;;;;;38.23;15.40;;;;;;;2.18;82.25;95704.34;5006148;28;20243;-69
2023/03/19 00:05:57;;;;;;;41.87;15.80;;;;;;;2.15;81.95;95706.38;5016651;28;20674;-69
2023/03/19 00:08:22;;;;;;;43.43;16.27;;;;;;;2.17;82.29;95700.16;4999709;28;20230;-68
2023/03/19 00:10:48;;;;;;;40.17;16.60;;;;;;;2.16;81.83;95698.50;4999921;28;20214;-69
2023/03/19 00:13:14;;;;;;;42.23;15.43;;;;;;;2.26;81.40;95701.94;5011231;28;21687;-68
2023/03/19 00:15:40;;;;;;;46.00;16.23;;;;;;;2.34;81.42;95703.88;5011317;28;20233;-68
2023/03/19 00:18:06;;;;;;;42.77;16.27;;;;;;;2.24;82.02;95696.09;5002620;28;20242;-68
2023/03/19 00:20:31;;;;;;;36.30;15.53;;;;;;;2.20;82.05;95704.22;5005790;28;20245;-68
2023/03/19 00:22:57;;;;;;;39.83;15.83;;;;;;;2.17;82.27;95705.31;5027483;28;20248;-68
2023/03/19 00:25:23;;;;;;;40.33;15.93;;;;;;;2.16;81.72;95702.84;5026079;28;20668;-68
2023/03/19 00:27:48;;;;;;;40.40;15.57;;;;;;;2.20;81.66;95704.22;5022136;28;20275;-68
2023/03/19 00:30:14;;;;;;;43.17;17.07;;;;;;;2.11;81.41;95685.16;5011633;28;20228;-68
2023/03/19 00:32:39;;;;;;;37.63;15.47;;;;;;;2.14;81.31;95682.31;5015516;28;20241;-68
2023/03/19 00:35:06;;;;;;;38.60;15.40;;;;;;;2.16;81.31;95685.59;5016476;28;20238;-68
2023/03/19 00:37:31;;;;;;;40.83;15.17;;;;;;;2.00;82.18;95687.84;5023819;28;20317;-68
2023/03/19 00:39:57;;;;;;;38.97;15.30;;;;;;;1.90;83.34;95689.53;4997888;28;20604;-68
2023/03/19 00:42:22;;;;;;;40.70;15.30;;;;;;;1.97;83.34;95682.91;5015070;28;20907;-67
2023/03/19 00:44:48;;;;;;;39.57;15.00;;;;;;;1.92;82.95;95678.13;5003929;28;20237;-68
2023/03/19 00:47:13;;;;;;;36.30;15.27;;;;;;;2.01;83.28;95668.78;5034725;28;20237;-68
2023/03/19 00:49:39;;;;;;;37.83;14.27;;;;;;;2.10;82.95;95672.38;5014547;28;20237;-70
2023/03/19 00:52:04;;;;;;;33.10;14.17;;;;;;;1.95;83.70;95671.91;5039699;28;20230;-67
2023/03/19 00:54:31;;;;;;;34.83;15.00;;;;;;;1.85;83.58;95669.28;5034033;28;20246;-67
2023/03/19 00:56:57;;;;;;;36.67;14.57;;;;;;;1.81;83.36;95670.50;5026463;28;20237;-68
2023/03/19 00:59:24;;;;;;;39.27;14.60;;;;;;;1.91;82.48;95673.13;5014860;28;20230;-68
2023/03/19 01:01:50;;;;;;;38.37;14.77;;;;;;;1.83;82.74;95671.19;5033923;28;20265;-71
2023/03/19 01:04:16;;;;;;;36.37;14.03;;;;;;;1.72;83.05;95666.06;4999942;28;20238;-68
2023/03/19 01:06:42;;;;;;;66.33;20.70;;;;;;;1.46;84.28;95659.66;5031494;28;20222;-68
2023/03/19 01:09:07;;;;;;;70.63;22.23;;;;;;;1.46;85.27;95662.25;5020771;28;20260;-68
2023/03/19 01:11:33;;;;;;;59.00;19.53;;;;;;;1.26;86.40;95669.06;5019466;28;20340;-68
2023/03/19 01:13:58;;;;;;;63.63;21.17;;;;;;;1.43;85.73;95664.28;5004894;28;20245;-68
2023/03/19 01:16:25;;;;;;;47.30;17.30;;;;;;;1.38;85.70;95658.66;5034219;28;20241;-68
2023/03/19 01:18:50;;;;;;;43.43;16.43;;;;;;;1.46;84.87;95661.47;5014889;28;20700;-67
2023/03/19 01:21:16;;;;;;;39.23;15.03;;;;;;;1.42;85.67;95660.03;5012304;28;20432;-68
2023/03/19 01:23:42;;;;;;;36.23;14.33;;;;;;;1.40;85.88;95657.59;4997589;28;20291;-68
2023/03/19 01:26:07;;;;;;;41.47;16.67;;;;;;;1.55;85.05;95658.13;5011138;28;20232;-67
2023/03/19 01:28:33;;;;;;;43.43;16.77;;;;;;;1.59;84.10;95655.16;5015110;28;20267;-68
2023/03/19 01:31:00;;;;;;;46.63;16.97;;;;;;;1.40;85.25;95656.78;5003007;28;20250;-68
2023/03/19 01:33:26;;;;;;;38.77;15.93;;;;;;;1.35;85.80;95654.59;5000110;28;20237;-68
2023/03/19 01:35:51;;;;;;;41.00;17.60;;;;;;;1.36;85.09;95651.06;5002435;28;20672;-68
2023/03/19 01:38:17;;;;;;;45.57;17.77;;;;;;;1.43;84.80;95651.38;5017089;28;20234;-68
2023/03/19 01:40:46;;;;;;;43.23;18.33;;;;;;;1.26;85.51;95655.34;5015568;28;20225;-68
2023/03/19 01:43:24;;;;;;;48.20;18.17;;;;;;;1.20;86.06;95646.34;5014781;28;20233;-67
2023/03/19 01:46:07;;;;;;;47.27;18.47;;;;;;;1.28;85.07;95653.44;5022675;28;20329;-69
2023/03/19 01:48:41;;;;;;;52.17;18.97;;;;;;;1.24;85.76;95658.03;5008435;28;20241;-68
2023/03/19 01:51:07;;;;;;;55.33;19.47;;;;;;;1.14;85.97;95649.44;5022887;28;20232;-68
2023/03/19 01:53:33;;;;;;;57.83;20.50;;;;;;;1.33;84.86;95651.31;5013090;28;20230;-68
2023/03/19 01:56:11;;;;;;;60.73;22.97;;;;;;;1.41;83.75;95658.44;5010117;28;20719;-68
2023/03/19 01:58:38;;;;;;;57.30;20.53;;;;;;;1.29;84.57;95660.25;5021747;28;20233;-68
2023/03/19 02:01:03;;;;;;;53.73;20.00;;;;;;;1.15;85.60;95658.78;5022404;28;20225;-68
2023/03/19 02:03:29;;;;;;;55.43;19.67;;;;;;;1.18;85.73;95663.69;5015741;28;20268;-69
2023/03/19 02:05:55;;;;;;;51.80;20.20;;;;;;;1.20;85.41;95663.56;5030547;28;20625;-68
2023/03/19 02:08:21;;;;;;;52.27;20.40;;;;;;;1.12;85.70;95658.22;5019838;28;20229;-67
2023/03/19 02:10:47;;;;;;;54.43;20.67;;;;;;;1.21;85.04;95662.63;5024431;28;20324;-68
2023/03/19 02:13:13;;;;;;;56.50;20.90;;;;;;;1.19;85.26;95660.19;5018763;28;20230;-68
2023/03/19 02:15:38;;;;;;;53.43;21.43;;;;;;;1.34;84.92;95664.06;5027274;28;20772;-67
2023/03/19 02:18:04;;;;;;;61.47;22.47;;;;;;;1.25;85.45;95667.41;5019371;28;20935;-68
2023/03/19 02:20:31;;;;;;;61.53;22.80;;;;;;;1.29;85.34;95652.53;5031846;28;20233;-68
2023/03/19 02:23:04;;;;;;;61.77;23.03;;;;;;;1.12;84.94;95651.28;5024518;28;20230;-68
2023/03/19 02:25:47;;;;;;;62.90;23.40;;;;;;;0.94;85.80;95652.78;5037007;28;20728;-67
2023/03/19 02:28:14;;;;;;;56.63;22.47;;;;;;;1.12;85.68;95653.88;5032609;28;20237;-67
2023/03/19 02:30:41;;;;;;;59.63;22.73;;;;;;;0.90;86.25;95653.97;5007568;28;20238;-67
2023/03/19 02:33:08;;;;;;;51.13;20.73;;;;;;;0.82;86.84;95661.50;4996999;28;20231;-68
2023/03/19 02:35:33;;;;;;;58.07;21.90;;;;;;;1.03;86.17;95659.75;5036354;28;20233;-68
2023/03/19 02:38:00;;;;;;;54.17;22.37;;;;;;;1.04;86.38;95664.00;5016025;28;20721;-69
2023/03/19 02:40:28;;;;;;;54.87;21.17;;;;;;;1.22;84.90;95664.25;5014595;28;20229;-69
2023/03/19 02:42:54;;;;;;;49.97;20.03;;;;;;;0.92;86.84;95662.41;5017042;28;20293;-69
2023/03/19 02:45:20;;;;;;;52.30;20.83;;;;;;;1.04;86.16;95661.41;5023837;28;20270;-69
2023/03/19 02:47:45;;;;;;;57.13;21.63;;;;;;;1.24;86.03;95667.53;5017660;28;20240;-68
2023/03/19 02:50:14;;;;;;;56.53;22.10;;;;;;;1.04;86.36;95660.59;5024742;28;20672;-69
2023/03/19 02:52:40;;;;;;;59.63;22.27;;;;;;;0.84;88.36;95669.91;5038162;28;21250;-69
2023/03/19 02:55:06;;;;;;;51.27;21.37;;;;;;;1.13;87.09;95670.16;5025947;28;20233;-68
2023/03/19 02:57:32;;;;;;;48.30;19.73;;;;;;;1.10;87.17;95671.22;5036807;28;20272;-68
2023/03/19 02:59:57;;;;;;;44.73;17.47;;;;;;;1.18;85.71;95670.59;5002571;28;20226;-68
2023/03/19 03:02:23;;;;;;;34.67;14.67;;;;;;;1.25;84.91;95669.97;5033539;28;20285;-68
2023/03/19 03:04:48;;;;;;;32.60;13.43;;;;;;;1.13;85.66;95665.81;5034480;28;20236;-67
2023/03/19 03:07:14;;;;;;;30.30;12.67;;;;;;;1.20;85.12;95676.44;5015603;28;20229;-68
2023/03/19 03:09:39;;;;;;;25.07;10.50;;;;;;;1.03;85.24;95670.06;5004091;28;21150;-68
2023/03/19 03:12:06;;;;;;;27.27;11.20;;;;;;;1.21;84.61;95673.75;5034722;28;20644;-68
2023/03/19 03:14:31;;;;;;;25.70;10.83;;;;;;;0.99;85.47;95679.00;5031907;28;20233;-68
2023/03/19 03:16:57;;;;;;;25.87;10.90;;;;;;;1.15;85.10;95676.81;5013135;28;20242;-69
2023/03/19 03:19:23;;;;;;;27.67;10.37;;;;;;;1.21;84.89;95678.09;5004994;28;20237;-67
2023/03/19 03:21:48;;;;;;;22.63;9.40;;;;;;;1.05;84.83;95683.66;5032290;28;20345;-68
2023/03/19 03:24:14;;;;;;;22.10;9.70;;;;;;;0.91;85.43;95693.44;4997427;28;20938;-68
2023/03/19 03:26:39;;;;;;;25.00;10.40;;;;;;;1.11;85.39;95693.47;5007916;28;20234;-68
2023/03/19 03:29:05;;;;;;;24.13;9.90;;;;;;;1.07;85.53;95691.28;5016815;28;20238;-68
2023/03/19 03:31:31;;;;;;;22.13;9.80;;;;;;;0.92;85.59;95695.06;5025310;28;20260;-68
2023/03/19 03:33:56;;;;;;;23.50;10.37;;;;;;;0.91;86.84;95691.66;5015140;28;20306;-68
2023/03/19 03:36:22;;;;;;;22.20;10.03;;;;;;;1.06;85.24;95697.34;5021667;28;21249;-69
2023/03/19 03:38:47;;;;;;;24.00;10.07;;;;;;;0.83;84.98;95688.06;5025793;28;20706;-69
2023/03/19 03:41:13;;;;;;;28.83;11.13;;;;;;;0.80;86.39;95690.88;5008505;28;20233;-69
2023/03/19 03:43:39;;;;;;;25.73;11.10;;;;;;;0.73;86.72;95690.56;5034107;28;20245;-68
2023/03/19 03:46:06;;;;;;;25.60;11.00;;;;;;;0.55;87.31;95692.03;5015078;28;20230;-69
2023/03/19 03:48:32;;;;;;;28.53;11.50;;;;;;;0.57;87.30;95700.44;5031370;28;20834;-69
2023/03/19 03:50:57;;;;;;;26.27;11.47;;;;;;;0.65;87.61;95700.63;5015368;28;20221;-69
2023/03/19 03:53:22;;;;;;;26.67;11.57;;;;;;;0.69;86.99;95695.13;5014991;28;20237;-68
2023/03/19 03:55:48;;;;;;;29.83;12.50;;;;;;;0.77;86.90;95698.84;5016196;28;20240;-68
2023/03/19 03:58:13;;;;;;;28.40;11.80;;;;;;;0.68;86.48;95701.22;5029304;28;20237;-68
2023/03/19 04:00:39;;;;;;;27.87;11.97;;;;;;;0.71;86.64;95701.91;5001936;28;20237;-69
2023/03/19 04:03:04;;;;;;;29.60;12.50;;;;;;;0.64;86.70;95702.41;5013398;28;20233;-67
2023/03/19 04:05:30;;;;;;;31.50;13.10;;;;;;;0.74;86.56;95699.91;5014504;28;20241;-69
2023/03/19 04:07:55;;;;;;;29.57;12.50;;;;;;;0.70;86.67;95706.25;5021798;28;20222;-68
2023/03/19 04:10:21;;;;;;;30.13;13.13;;;;;;;0.63;87.17;95702.50;5017939;28;20295;-68
2023/03/19 04:12:46;;;;;;;35.20;12.77;;;;;;;0.64;86.08;95699.84;5014718;28;20927;-68
2023/03/19 04:15:12;;;;;;;33.53;13.47;;;;;;;0.59;86.09;95695.97;5017638;28;20257;-68
2023/03/19 04:17:39;;;;;;;31.63;13.30;;;;;;;0.51;87.00;95688.03;5032569;28;20230;-68
2023/03/19 04:20:06;;;;;;;33.47;13.70;;;;;;;0.57;86.97;95692.72;5002811;28;20299;-68
2023/03/19 04:22:32;;;;;;;31.23;13.37;;;;;;;0.64;85.93;95686.13;5005015;28;20237;-68
2023/03/19 04:24:57;;;;;;;33.50;13.50;;;;;;;0.74;85.16;95694.75;5012509;28;20235;-68
2023/03/19 04:27:23;;;;;;;32.90;13.03;;;;;;;0.65;85.57;95693.72;5028304;28;20550;-68
2023/03/19 04:29:48;;;;;;;29.07;13.27;;;;;;;0.71;85.48;95700.16;5034156;28;20229;-68
2023/03/19 04:32:14;;;;;;;36.47;14.07;;;;;;;0.71;85.58;95695.03;5006089;28;20642;-68
2023/03/19 04:34:40;;;;;;;33.73;13.87;;;;;;;0.67;85.97;95697.00;4998329;28;20765;-68
2023/03/19 04:37:06;;;;;;;30.53;12.37;;;;;;;0.67;86.37;95706.47;5007178;28;20230;-68
2023/03/19 04:39:32;;;;;;;29.77;12.70;;;;;;;0.61;86.72;95701.81;5012616;28;20245;-68
2023/03/19 04:41:58;;;;;;;32.70;12.43;;;;;;;0.60;87.20;95708.72;5029344;28;20796;-68
2023/03/19 04:44:23;;;;;;;30.93;12.50;;;;;;;0.54;87.13;95711.78;5022297;28;20291;-68
2023/03/19 04:46:49;;;;;;;32.60;12.63;;;;;;;0.60;87.47;95708.72;5000742;28;20229;-68
2023/03/19 04:49:14;;;;;;;29.77;12.43;;;;;;;0.46;89.11;95705.59;5015768;28;20233;-68
2023/03/19 04:51:40;;;;;;;28.10;12.90;;;;;;;0.61;88.42;95709.53;5032077;28;20622;-68
2023/03/19 04:54:06;;;;;;;31.37;13.60;;;;;;;0.64;88.28;95702.41;5036966;28;20348;-68
2023/03/19 04:56:32;;;;;;;30.43;13.00;;;;;;;0.71;88.69;95705.31;5015202;28;20320;-67
2023/03/19 04:58:57;;;;;;;34.33;12.77;;;;;;;0.83;87.88;95708.69;4997095;28;20238;-68
2023/03/19 05:01:22;;;;;;;29.47;12.60;;;;;;;0.86;87.55;95708.44;5017148;28;20234;-68
2023/03/19 05:03:48;;;;;;;32.20;13.60;;;;;;;0.90;87.61;95700.34;5011536;28;20770;-68
2023/03/19 05:06:14;;;;;;;38.50;13.93;;;;;;;0.98;87.44;95705.69;5015596;28;20228;-68
2023/03/19 05:08:40;;;;;;;34.00;14.00;;;;;;;0.95;87.41;95711.13;5029244;28;20237;-68
2023/03/19 05:11:05;;;;;;;38.87;13.57;;;;;;;1.04;87.61;95710.38;5030264;28;20226;-68
2023/03/19 05:13:30;;;;;;;40.27;13.90;;;;;;;0.90;88.25;95712.41;5011805;28;20249;-68
2023/03/19 05:15:56;;;;;;;29.97;13.70;;;;;;;0.87;88.07;95710.06;5012878;28;20225;-68
2023/03/19 05:18:22;;;;;;;34.67;13.87;;;;;;;0.97;87.20;95706.66;4993985;28;20266;-67
2023/03/19 05:20:48;;;;;;;38.13;14.93;;;;;;;1.13;87.67;95717.38;5008970;28;20234;-68
2023/03/19 05:23:13;;;;;;;37.17;14.33;;;;;;;1.14;87.16;95713.88;5017275;28;20217;-67
2023/03/19 05:25:39;;;;;;;33.33;13.60;;;;;;;1.21;86.71;95712.44;5012178;28;20760;-68
2023/03/19 05:28:06;;;;;;;31.90;14.33;;;;;;;1.33;85.90;95715.78;5027745;28;20226;-68
2023/03/19 05:30:32;;;;;;;34.10;14.73;;;;;;;1.55;85.22;95714.84;4998613;28;20237;-67
2023/03/19 05:32:58;;;;;;;38.43;15.00;;;;;;;2.26;81.73;95708.88;5015540;28;20278;-69
2023/03/19 05:35:24;;;;;;;33.27;14.50;;;;;;;2.90;78.38;95710.16;5010974;28;20330;-68
2023/03/19 05:37:50;;;;;;;34.53;13.90;;;;;;;2.37;79.43;95712.16;5006094;28;20240;-69
2023/03/19 05:40:15;;;;;;;30.27;14.20;;;;;;;2.01;82.87;95718.66;5035262;28;20225;-67
2023/03/19 05:42:41;;;;;;;38.67;15.73;;;;;;;1.93;83.54;95715.09;5040063;28;20819;-67
2023/03/19 05:45:07;;;;;;;34.13;14.33;;;;;;;1.97;83.07;95719.06;5018622;28;20237;-68
2023/03/19 05:47:33;;;;;;;31.00;13.57;;;;;;;2.29;80.11;95722.34;5026760;28;20398;-68
2023/03/19 05:49:59;;;;;;;34.87;14.53;;;;;;;2.39;80.04;95724.97;5038523;28;20254;-69
2023/03/19 05:52:25;;;;;;;30.80;13.77;;;;;;;2.35;78.98;95726.16;5031580;28;20260;-68
2023/03/19 05:54:50;;;;;;;28.07;13.10;;;;;;;2.27;79.87;95721.63;5022315;28;20470;-69
2023/03/19 05:57:15;;;;;;;30.80;13.23;;;;;;;2.30;79.22;95726.56;5017483;28;20350;-68
2023/03/19 05:59:41;;;;;;;31.93;13.00;;;;;;;2.49;78.69;95718.88;5011376;28;20226;-68
2023/03/19 06:02:07;;;;;;;25.17;12.47;;;;;;;2.42;78.24;95728.09;5011533;28;20287;-68
2023/03/19 06:04:32;;;;;;;30.53;12.17;;;;;;;2.44;77.63;95727.97;5026667;28;20659;-68
2023/03/19 06:06:57;;;;;;;23.20;11.70;;;;;;;2.25;79.09;95731.28;5004737;28;20225;-68
2023/03/19 06:09:23;;;;;;;26.93;12.07;;;;;;;2.56;79.07;95717.41;5020443;28;20234;-68
2023/03/19 06:11:48;;;;;;;26.47;11.40;;;;;;;2.61;77.94;95720.41;5035247;28;20233;-68
2023/03/19 06:14:14;;;;;;;26.90;11.43;;;;;;;2.87;76.58;95718.16;5023177;28;20236;-68
2023/03/19 06:16:39;;;;;;;27.93;12.07;;;;;;;2.95;76.64;95720.09;5043065;28;20778;-68
2023/03/19 06:19:05;;;;;;;26.37;11.53;;;;;;;2.91;76.82;95719.56;5009073;28;20237;-68
2023/03/19 06:21:30;;;;;;;22.10;10.77;;;;;;;2.90;75.96;95725.66;5031603;28;20237;-68
2023/03/19 06:23:56;;;;;;;24.53;10.73;;;;;;;2.89;75.52;95723.22;4999864;28;20235;-68
2023/03/19 06:26:22;;;;;;;25.67;10.50;;;;;;;2.95;75.73;95725.25;5029728;28;20237;-68
2023/03/19 06:28:47;;;;;;;24.20;10.50;;;;;;;3.31;75.00;95725.44;5018880;28;20237;-68
2023/03/19 06:31:13;;;;;;;27.00;11.37;;;;;;;3.23;75.08;95724.47;5042962;28;20306;-68
2023/03/19 06:33:38;;;;;;;24.37;11.50;;;;;;;3.24;74.04;95729.53;5019503;28;20241;-68
2023/03/19 06:36:04;;;;;;;23.03;11.30;;;;;;;3.38;74.82;95741.25;5018889;28;20616;-68
2023/03/19 06:38:30;;;;;;;22.47;10.67;;;;;;;3.51;72.50;95738.38;5034691;28;20783;-68
2023/03/19 06:40:55;;;;;;;22.23;10.77;;;;;;;3.85;72.16;95736.97;5033096;28;20240;-68
2023/03/19 06:43:21;;;;;;;23.37;10.50;;;;;;;4.12;69.81;95736.25;5017994;28;20291;-69
2023/03/19 06:45:46;;;;;;;21.90;10.67;;;;;;;4.49;70.04;95737.91;5032215;28;20241;-68
2023/03/19 06:48:12;;;;;;;23.20;10.87;;;;;;;4.40;68.92;95740.53;5035811;28;20286;-68
2023/03/19 06:50:37;;;;;;;18.90;9.93;;;;;;;4.58;68.35;95747.44;4999147;28;20235;-68
2023/03/19 06:53:03;;;;;;;21.90;9.90;;;;;;;4.52;67.53;95744.59;5030584;28;20264;-68
2023/03/19 06:55:29;;;;;;;22.50;10.03;;;;;;;4.37;67.60;95758.97;5003441;28;20237;-69
2023/03/19 06:57:55;;;;;;;20.37;9.63;;;;;;;4.63;66.75;95757.38;5015091;28;20261;-68
2023/03/19 07:00:20;;;;;;;20.57;10.10;;;;;;;4.70;67.07;95755.84;5016208;28;20305;-68
2023/03/19 07:02:46;;;;;;;21.70;10.40;;;;;;;5.09;65.88;95752.09;5033587;28;20232;-68
2023/03/19 07:05:12;;;;;;;22.13;10.83;;;;;;;5.31;64.35;95754.28;5016437;28;20769;-67
2023/03/19 07:07:37;;;;;;;24.97;10.67;;;;;;;5.39;64.71;95751.78;5017584;28;20226;-69
2023/03/19 07:10:03;;;;;;;24.83;10.60;;;;;;;4.96;65.17;95749.03;5019752;28;20252;-68
2023/03/19 07:12:29;;;;;;;24.97;10.87;;;;;;;5.30;63.82;95752.63;5014565;28;20230;-68
2023/03/19 07:14:57;;;;;;;26.40;10.10;;;;;;;5.50;62.84;95752.50;5015609;28;20240;-69
2023/03/19 07:17:23;;;;;;;22.60;10.10;;;;;;;5.75;62.86;95752.59;5017633;28;20241;-68
2023/03/19 07:19:48;;;;;;;25.13;10.73;;;;;;;6.16;62.29;95753.75;5016142;28;20230;-67
2023/03/19 07:22:14;;;;;;;26.63;10.93;;;;;;;6.23;60.26;95754.78;5018900;28;20612;-68
2023/03/19 07:24:39;;;;;;;22.33;10.80;;;;;;;6.32;59.90;95755.63;5016619;28;20746;-68
2023/03/19 07:27:05;;;;;;;22.80;10.70;;;;;;;6.31;60.89;95749.63;5036609;28;20720;-68
2023/03/19 07:29:30;;;;;;;21.90;11.67;;;;;;;6.41;60.23;95752.09;5015967;28;20238;-69
2023/03/19 07:31:56;;;;;;;24.70;11.87;;;;;;;6.49;60.84;95752.16;5005837;28;20232;-69
2023/03/19 07:34:22;;;;;;;24.77;11.77;;;;;;;6.46;60.13;95752.47;5023640;28;20248;-68
2023/03/19 07:36:47;;;;;;;24.77;11.80;;;;;;;6.09;60.31;95752.69;5033327;28;20230;-69
2023/03/19 07:39:13;;;;;;;25.70;11.87;;;;;;;6.38;59.60;95748.03;5015821;28;20233;-69
2023/03/19 07:41:38;;;;;;;25.37;11.83;;;;;;;6.65;59.87;95747.88;5025058;28;20820;-70
2023/03/19 07:44:04;;;;;;;28.00;12.93;;;;;;;6.12;59.16;95749.81;5005594;28;20647;-69
2023/03/19 07:46:30;;;;;;;23.80;11.53;;;;;;;6.27;60.65;95750.91;5035051;28;20254;-69
2023/03/19 07:48:56;;;;;;;19.57;10.80;;;;;;;6.46;59.83;95749.88;5007468;28;20726;-70
2023/03/19 07:51:21;;;;;;;23.93;11.17;;;;;;;6.53;58.27;95743.91;5018458;28;20230;-69
2023/03/19 07:53:47;;;;;;;25.17;11.03;;;;;;;6.51;59.40;95751.06;5029147;28;20237;-69
2023/03/19 07:56:12;;;;;;;18.70;9.67;;;;;;;6.60;58.45;95751.91;5013676;28;20283;-69
2023/03/19 07:58:38;;;;;;;21.60;9.87;;;;;;;6.98;58.09;95755.81;5016725;28;20234;-69
2023/03/19 08:01:03;;;;;;;20.40;9.80;;;;;;;6.78;58.34;95752.66;5014099;28;20214;-70
2023/03/19 08:03:29;;;;;;;24.37;10.97;;;;;;;6.58;58.04;95746.84;5014368;28;20234;-69
2023/03/19 08:05:54;;;;;;;21.13;10.40;;;;;;;6.37;58.55;95745.59;5000692;28;20914;-70
2023/03/19 08:08:19;;;;;;;22.90;11.07;;;;;;;6.75;59.45;95745.97;5007465;28;20934;-70
2023/03/19 08:10:46;;;;;;;26.53;12.20;;;;;;;6.32;59.80;95742.63;5030686;28;20293;-69
2023/03/19 08:13:13;;;;;;;21.97;10.80;;;;;;;6.61;59.38;95745.72;5027119;28;20310;-70
2023/03/19 08:15:38;;;;;;;30.87;14.07;;;;;;;6.62;57.91;95745.56;5013507;28;20750;-69
2023/03/19 08:18:04;;;;;;;27.00;12.73;;;;;;;6.47;58.05;95741.91;5017218;28;20229;-70
2023/03/19 08:20:30;;;;;;;22.43;10.63;;;;;;;6.48;58.50;95748.75;5001732;28;20229;-70
2023/03/19 08:22:56;;;;;;;22.43;10.30;;;;;;;6.70;57.90;95745.63;5030804;28;20711;-68
2023/03/19 08:25:22;;;;;;;30.13;11.70;;;;;;;6.89;57.97;95743.75;5004186;28;20286;-69
2023/03/19 08:27:48;;;;;;;21.23;9.53;;;;;;;6.77;57.17;95741.44;5017497;28;20224;-69
2023/03/19 08:30:13;;;;;;;32.40;13.70;;;;;;;7.00;57.60;95738.28;5029754;28;20333;-69
2023/03/19 08:32:39;;;;;;;35.53;15.10;;;;;;;7.18;57.65;95746.78;5029886;28;20225;-70
2023/03/19 08:35:05;;;;;;;20.97;10.13;;;;;;;7.19;56.81;95743.19;5008125;28;20237;-70
2023/03/19 08:37:30;;;;;;;21.80;10.00;;;;;;;7.38;57.06;95741.13;5011693;28;20716;-70
2023/03/19 08:39:56;;;;;;;19.20;9.47;;;;;;;7.26;56.35;95745.00;5012089;28;20778;-70
2023/03/19 08:42:21;;;;;;;17.77;9.07;;;;;;;7.15;56.29;95736.66;5014950;28;20236;-70
2023/03/19 08:44:47;;;;;;;19.80;10.00;;;;;;;7.26;55.89;95736.41;5031514;28;20222;-69
2023/03/19 08:47:12;;;;;;;18.60;9.90;;;;;;;7.39;54.43;95734.97;5017641;28;20233;-69
2023/03/19 08:49:38;;;;;;;20.23;9.83;;;;;;;7.49;55.34;95727.00;5033916;28;20275;-70
2023/03/19 08:52:04;;;;;;;25.30;11.73;;;;;;;7.53;55.72;95723.09;5030469;28;20272;-70
2023/03/19 08:54:29;;;;;;;22.33;10.53;;;;;;;7.75;54.86;95717.25;5013653;28;20329;-69
2023/03/19 08:56:55;;;;;;;43.60;15.07;;;;;;;7.76;54.30;95718.88;5029564;28;20229;-70
2023/03/19 08:59:20;;;;;;;23.23;10.10;;;;;;;7.86;53.06;95716.09;5031257;28;20234;-70
2023/03/19 09:01:50;;;;;;;20.20;10.17;;;;;;;7.90;52.40;95710.41;5039320;28;20797;-69
2023/03/19 09:04:16;;;;;;;17.83;9.43;;;;;;;8.18;53.36;95705.66;5013841;28;20318;-70
2023/03/19 09:06:41;;;;;;;21.90;10.43;;;;;;;8.30;52.68;95698.31;5015477;28;20236;-68
2023/03/19 09:09:07;;;;;;;21.70;10.03;;;;;;;8.41;52.75;95696.19;5023403;28;20244;-68
2023/03/19 09:11:33;;;;;;;23.57;10.20;;;;;;;8.48;51.77;95704.97;5024153;28;20226;-69
2023/03/19 09:13:58;;;;;;;18.93;9.47;;;;;;;8.63;50.20;95699.88;5035639;28;20226;-69
2023/03/19 09:16:25;;;;;;;20.87;9.03;;;;;;;8.74;49.65;95689.88;5023545;28;20230;-69
2023/03/19 09:18:50;;;;;;;17.03;8.73;;;;;;;8.70;50.44;95693.00;5017368;28;20225;-72
2023/03/19 09:21:16;;;;;;;19.33;10.07;;;;;;;8.81;48.83;95700.47;5031824;28;20307;-69
2023/03/19 09:23:41;;;;;;;15.27;8.10;;;;;;;9.00;47.88;95694.84;5018161;28;20695;-71
2023/03/19 09:26:07;;;;;;;15.27;8.50;;;;;;;8.92;45.86;95683.59;5029292;28;20398;-71
2023/03/19 09:28:32;;;;;;;16.70;8.40;;;;;;;9.11;46.38;95689.22;5031770;28;20307;-70
2023/03/19 09:30:58;;;;;;;17.00;8.77;;;;;;;9.27;45.70;95689.13;5001030;28;20233;-71
2023/03/19 09:33:23;;;;;;;16.97;7.30;;;;;;;9.37;46.42;95696.75;5027493;28;20244;-70
2023/03/19 09:35:51;;;;;;;14.13;7.33;;;;;;;9.39;45.51;95687.75;5029841;28;20825;-70
2023/03/19 09:38:17;;;;;;;12.87;6.00;;;;;;;9.33;44.81;95685.84;5016885;28;20288;-70
2023/03/19 09:40:45;;;;;;;13.97;7.97;;;;;;;9.61;45.33;95680.91;5014648;28;20221;-70
2023/03/19 09:43:25;;;;;;;14.93;7.47;;;;;;;9.88;46.61;95679.56;5014421;28;20241;-70
2023/03/19 09:45:51;;;;;;;18.80;9.00;;;;;;;9.96;45.43;95677.66;5025356;28;20689;-70
2023/03/19 09:48:22;;;;;;;15.00;8.50;;;;;;;9.99;45.63;95679.13;5012113;28;20257;-72
2023/03/19 09:50:47;;;;;;;15.57;8.37;;;;;;;10.02;45.56;95682.22;5029464;28;20317;-69
2023/03/19 09:53:39;;;;;;;18.60;9.63;;;;;;;10.17;46.35;95669.19;5012460;28;20312;-70
2023/03/19 09:56:06;;;;;;;16.50;8.40;;;;;;;10.30;44.42;95674.59;5027448;28;20275;-71
2023/03/19 09:58:33;;;;;;;16.83;8.20;;;;;;;10.30;44.82;95669.38;5017882;28;20708;-70
2023/03/19 10:00:59;;;;;;;20.27;9.03;;;;;;;10.57;45.50;95671.38;5012903;28;20244;-71
2023/03/19 10:03:52;;;;;;;32.73;14.27;;;;;;;10.55;44.61;95668.13;5027341;28;20578;-70
2023/03/19 10:06:24;;;;;;;14.03;7.77;;;;;;;10.48;43.66;95664.63;5029367;28;20230;-70
2023/03/19 10:09:21;;;;;;;16.97;7.70;;;;;;;10.73;44.65;95654.66;5032994;28;20902;-70
2023/03/19 10:11:55;;;;;;;13.67;7.83;;;;;;;10.81;43.45;95650.16;5017764;28;20238;-70
2023/03/19 10:14:44;;;;;;;17.23;8.63;;;;;;;10.90;43.08;95656.09;5030075;28;20238;-71
2023/03/19 10:17:34;;;;;;;15.60;8.67;;;;;;;11.00;42.72;95653.19;5031857;28;20231;-70
2023/03/19 10:20:05;;;;;;;16.73;8.20;;;;;;;11.12;41.25;95643.84;5033166;28;20245;-71
2023/03/19 10:22:52;;;;;;;18.07;8.77;;;;;;;11.09;42.45;95644.19;5020946;28;20246;-70
2023/03/19 10:25:21;;;;;;;17.57;8.83;;;;;;;11.11;41.54;95636.97;5026921;28;20332;-70
2023/03/19 10:27:47;;;;;;;17.47;8.93;;;;;;;11.24;40.67;95634.50;5022498;28;20261;-71
2023/03/19 10:30:16;;;;;;;16.77;7.50;;;;;;;11.27;42.28;95623.66;5020346;28;20234;-70
2023/03/19 10:32:44;;;;;;;16.23;7.63;;;;;;;11.63;41.66;95621.75;5018877;28;20252;-68
2023/03/19 10:35:23;;;;;;;13.17;6.80;;;;;;;11.72;41.36;95623.31;5009156;28;20230;-69
2023/03/19 10:37:49;;;;;;;14.53;6.80;;;;;;;11.72;39.63;95620.69;5039306;28;20238;-69
2023/03/19 10:40:25;;;;;;;13.60;7.07;;;;;;;11.95;40.59;95608.16;5014804;28;20233;-69
2023/03/19 10:43:15;;;;;;;13.03;7.03;;;;;;;11.94;40.56;95606.50;5017975;28;20246;-70
2023/03/19 10:45:40;;;;;;;12.97;7.20;;;;;;;11.96;40.25;95601.91;5035264;28;20234;-69
2023/03/19 10:48:06;;;;;;;12.03;6.50;;;;;;;12.23;41.25;95595.00;5015044;28;20233;-70
2023/03/19 10:50:44;;;;;;;13.13;6.60;;;;;;;12.31;39.18;95586.97;5005270;28;20222;-69
2023/03/19 10:53:13;;;;;;;11.40;6.10;;;;;;;12.46;40.02;95584.25;5032639;28;20233;-68
2023/03/19 10:55:43;;;;;;;11.20;6.20;;;;;;;12.66;39.67;95582.50;5034668;28;20241;-68
2023/03/19 10:58:19;;;;;;;9.07;5.30;;;;;;;12.78;39.86;95580.94;5019834;28;20778;-69
2023/03/19 11:00:46;;;;;;;10.93;6.00;;;;;;;12.99;38.95;95577.38;4998676;28;20228;-69
2023/03/19 11:03:37;;;;;;;10.63;5.50;;;;;;;13.04;38.70;95562.63;5017406;28;20222;-69
2023/03/19 11:06:04;;;;;;;13.90;5.27;;;;;;;13.08;36.96;95558.63;5008806;28;20237;-68
2023/03/19 11:08:29;;;;;;;10.23;5.00;;;;;;;13.22;36.78;95569.97;5023589;28;20244;-69
2023/03/19 11:10:55;;;;;;;9.47;5.17;;;;;;;13.10;36.75;95559.25;5017445;28;20229;-69
2023/03/19 11:13:22;;;;;;;11.57;5.70;;;;;;;13.17;36.88;95560.06;5025468;28;20284;-70
2023/03/19 11:15:48;;;;;;;13.57;5.53;;;;;;;13.29;37.22;95547.13;5018991;28;20317;-69
2023/03/19 11:18:26;;;;;;;12.87;5.60;;;;;;;13.57;39.48;95536.41;5019550;28;20317;-69
2023/03/19 11:21:00;;;;;;;11.50;5.63;;;;;;;13.87;37.35;95535.81;5017061;28;20260;-70
2023/03/19 11:23:29;;;;;;;10.40;5.47;;;;;;;13.97;37.25;95536.19;5016371;28;20245;-70
2023/03/19 11:25:58;;;;;;;12.63;6.10;;;;;;;14.14;36.38;95532.09;5020803;28;20222;-69